Flight Track Log - Related Links

Times and Time Zones

All times are in EDT time to prevent confusion due to time zone crossing. See the ASH3756 flight status page for this flight to view local times or setup timezone preferences in your user account.

Time Position Orientation Groundspeed Altitude Reporting Facility
EDT Latitude Longitude Course Direction KTS MPH feet Rate Location/Type
Sat 01:08:37 PM 38.9667 -77.5167 125° Southeast 180 207 2,100  Level Potomac TRACON
Sat 01:09:37 PM 39.0167 -77.5667 322° Northwest 232 267 4,400 2,316 Climbing Potomac TRACON
Sat 01:10:00 PM 38.7827 -77.1619 120° Southeast  Level FlightAware Approximate
Sat 01:10:31 PM 39.0667 -77.5333 27° Northeast 281 323 6,500  Level Potomac TRACON
Sat 01:11:00 PM 38.7361 -77.0592 120° Southeast  Level FlightAware Approximate
Sat 01:11:37 PM 39.1500 -77.4667 32° Northeast 311 358 9,700  Level Potomac TRACON
Sat 01:12:00 PM 38.6853 -76.9600 125° Southeast  Level FlightAware Approximate
Sat 01:12:31 PM 39.1667 -77.3667 78° East 366 421 10,000  Level Potomac TRACON
Sat 01:13:00 PM 38.6317 -76.8633 125° Southeast  Level FlightAware Approximate
Sat 01:13:31 PM 39.1333 -77.2333 108° East 393 452 10,400  Level Potomac TRACON
Sat 01:14:00 PM 38.5779 -76.7668 125° Southeast  Level FlightAware Approximate
Sat 01:14:31 PM 39.0833 -77.1167 119° Southeast 403 464 12,400  Level Potomac TRACON
Sat 01:16:12 PM 38.9639 -76.9719 137° Southeast 421 484 14,000 596 Climbing Washington Center
Sat 01:17:12 PM 38.8542 -76.9031 154° Southeast 421 484 14,000  Level Washington Center
Sat 01:18:10 PM 38.7547 -76.8456 156° South 409 471 14,000  Level Washington Center
Sat 01:19:10 PM 38.6572 -76.7853 154° Southeast 396 456 14,000  Level Washington Center
Sat 01:20:10 PM 38.5597 -76.7333 157° South 391 450 14,000  Level Washington Center
Sat 01:21:11 PM 38.4578 -76.7133 171° South 379 436 14,000  Level Washington Center
Sat 01:22:11 PM 38.3536 -76.7011 175° South 374 430 14,000  Level Washington Center
Sat 01:23:11 PM 38.2350 -76.6808 172° South 379 436 14,000  Level Washington Center
Sat 01:24:12 PM 38.1333 -76.6319 159° South 384 442 14,000 -252 Level Washington Center
Sat 01:25:10 PM 38.0378 -76.5778 156° South 389 448 13,500 -1,322 Descending Washington Center
Sat 01:26:10 PM 37.9403 -76.5211 155° Southeast 389 448 11,400 -1,736 Descending Washington Center
Sat 01:27:11 PM 37.8447 -76.4675 156° South 384 442 10,000 -716 Descending Washington Center
Sat 01:27:59 PM 37.7678 -76.4272 158° South 376 433 10,100  Climbing Washington Center
Sat 01:29:03 PM 37.6933 -76.3450 139° Southeast 380 437 10,000 -49 Descending Washington Center
Sat 01:30:01 PM 37.6333 -76.2342 124° Southeast 374 430 10,000  Level Washington Center
Sat 01:31:08 PM 37.5650 -76.1158 126° Southeast 372 428 10,000  Level Washington Center
Sat 01:32:09 PM 37.5008 -76.0158 129° Southeast 365 420 10,000 -393 Level Washington Center
Sat 01:33:10 PM 37.4194 -75.9972 170° South 304 350 9,200 -1,240 Descending Washington Center
Sat 01:34:10 PM 37.3444 -75.9836 172° South 289 333 7,500 -1,795 Descending Washington Center
Sat 01:35:17 PM 37.2550 -75.9703 173° South 275 316 5,400 -1,835 Descending Washington Center
Sat 01:36:11 PM 37.1881 -75.9750 183° South 262 302 3,800 -1,526 Descending Washington Center
Sat 01:37:11 PM 37.1214 -75.9800 183° South 266 306 2,500 -1,300 Descending Washington Center

Login

Don't have an account? Register now (free) for customized features, flight alerts, and more!